sensor_id;sensor_type;location;lat;lon;timestamp;pressure;altitude;pressure_sealevel;temperature;humidity
34500;BME280;20745;50.882;6.962;2022-10-16T00:01:15;100498.13;;;14.90;100.00
34500;BME280;20745;50.882;6.962;2022-10-16T00:03:43;100569.94;;;15.33;100.00
34500;BME280;20745;50.882;6.962;2022-10-16T00:06:10;100506.47;;;14.95;100.00
34500;BME280;20745;50.882;6.962;2022-10-16T00:08:38;100537.41;;;15.07;100.00
34500;BME280;20745;50.882;6.962;2022-10-16T00:11:10;100548.25;;;15.20;100.00
34500;BME280;20745;50.882;6.962;2022-10-16T00:13:39;100564.94;;;15.30;100.00
34500;BME280;20745;50.882;6.962;2022-10-16T00:16:06;100506.91;;;14.92;100.00
34500;BME280;20745;50.882;6.962;2022-10-16T00:18:33;100460.75;;;14.73;100.00
34500;BME280;20745;50.882;6.962;2022-10-16T00:21:12;100520.72;;;14.97;100.00
34500;BME280;20745;50.882;6.962;2022-10-16T00:23:40;100475.84;;;14.62;100.00
34500;BME280;20745;50.882;6.962;2022-10-16T06:21:30;100767.13;;;14.72;100.00
34500;BME280;20745;50.882;6.962;2022-10-16T21:04:08;101094.81;;;16.81;100.00
34500;BME280;20745;50.882;6.962;2022-10-16T21:06:37;101028.56;;;16.48;100.00
34500;BME280;20745;50.882;6.962;2022-10-16T21:09:05;100978.88;;;16.13;100.00
34500;BME280;20745;50.882;6.962;2022-10-16T21:11:34;101085.56;;;16.75;100.00
34500;BME280;20745;50.882;6.962;2022-10-16T21:14:03;101072.16;;;16.67;100.00
34500;BME280;20745;50.882;6.962;2022-10-16T21:16:30;100962.34;;;16.02;100.00
34500;BME280;20745;50.882;6.962;2022-10-16T21:19:00;101028.94;;;16.38;100.00
34500;BME280;20745;50.882;6.962;2022-10-16T21:21:34;101135.88;;;17.05;100.00
34500;BME280;20745;50.882;6.962;2022-10-16T21:24:01;101062.31;;;16.66;100.00
34500;BME280;20745;50.882;6.962;2022-10-16T21:26:28;101069.00;;;16.70;100.00
34500;BME280;20745;50.882;6.962;2022-10-16T21:29:04;101069.00;;;16.70;100.00
34500;BME280;20745;50.882;6.962;2022-10-16T21:31:32;101050.38;;;16.54;100.00
34500;BME280;20745;50.882;6.962;2022-10-16T21:33:59;101057.06;;;16.65;100.00
34500;BME280;20745;50.882;6.962;2022-10-16T21:36:28;101086.84;;;16.66;100.00
34500;BME280;20745;50.882;6.962;2022-10-16T21:38:59;101126.22;;;17.03;100.00
34500;BME280;20745;50.882;6.962;2022-10-16T21:41:28;101128.75;;;17.04;100.00
34500;BME280;20745;50.882;6.962;2022-10-16T21:43:56;101017.66;;;16.35;100.00
34500;BME280;20745;50.882;6.962;2022-10-16T21:46:25;101125.41;;;17.02;100.00
34500;BME280;20745;50.882;6.962;2022-10-16T21:48:53;100962.97;;;15.97;100.00
34500;BME280;20745;50.882;6.962;2022-10-16T21:51:28;101022.66;;;16.31;100.00
34500;BME280;20745;50.882;6.962;2022-10-16T21:53:55;101000.47;;;16.21;100.00
34500;BME280;20745;50.882;6.962;2022-10-16T21:56:22;100951.44;;;15.89;100.00
34500;BME280;20745;50.882;6.962;2022-10-16T21:58:51;101131.50;;;16.98;100.00
34500;BME280;20745;50.882;6.962;2022-10-16T22:01:21;101064.44;;;16.58;100.00
34500;BME280;20745;50.882;6.962;2022-10-16T22:03:49;100975.53;;;15.98;100.00
34500;BME280;20745;50.882;6.962;2022-10-16T22:06:18;101035.66;;;16.36;100.00
34500;BME280;20745;50.882;6.962;2022-10-16T22:08:49;100971.13;;;15.97;100.00
34500;BME280;20745;50.882;6.962;2022-10-16T22:11:19;101067.97;;;16.58;100.00
34500;BME280;20745;50.882;6.962;2022-10-16T22:13:49;101072.19;;;16.54;100.00
34500;BME280;20745;50.882;6.962;2022-10-16T22:16:24;101020.19;;;16.23;100.00
34500;BME280;20745;50.882;6.962;2022-10-16T22:18:52;101018.50;;;16.16;100.00
34500;BME280;20745;50.882;6.962;2022-10-16T22:21:20;100968.63;;;15.89;100.00
34500;BME280;20745;50.882;6.962;2022-10-16T22:23:47;101143.66;;;16.95;100.00
34500;BME280;20745;50.882;6.962;2022-10-16T22:26:13;101060.84;;;16.44;100.00
34500;BME280;20745;50.882;6.962;2022-10-16T22:28:40;101021.22;;;16.16;100.00
34500;BME280;20745;50.882;6.962;2022-10-16T22:31:32;101063.59;;;16.44;100.00
34500;BME280;20745;50.882;6.962;2022-10-16T22:34:01;101136.97;;;16.91;100.00
34500;BME280;20745;50.882;6.962;2022-10-16T22:36:55;101130.91;;;16.89;100.00
34500;BME280;20745;50.882;6.962;2022-10-16T22:39:22;101011.59;;;16.13;100.00
34500;BME280;20745;50.882;6.962;2022-10-16T22:41:49;101069.69;;;16.46;100.00
34500;BME280;20745;50.882;6.962;2022-10-16T22:44:16;100958.75;;;15.75;100.00
34500;BME280;20745;50.882;6.962;2022-10-16T22:46:43;101094.63;;;16.56;100.00
34500;BME280;20745;50.882;6.962;2022-10-16T22:49:11;101034.41;;;16.25;100.00
34500;BME280;20745;50.882;6.962;2022-10-16T22:51:38;101034.22;;;16.27;100.00
34500;BME280;20745;50.882;6.962;2022-10-16T22:54:04;101064.22;;;16.46;100.00
34500;BME280;20745;50.882;6.962;2022-10-16T22:56:31;101034.22;;;16.27;100.00
34500;BME280;20745;50.882;6.962;2022-10-16T22:58:58;101100.72;;;16.65;100.00
34500;BME280;20745;50.882;6.962;2022-10-16T23:01:33;101073.44;;;16.52;100.00
34500;BME280;20745;50.882;6.962;2022-10-16T23:04:00;101071.34;;;16.47;100.00
34500;BME280;20745;50.882;6.962;2022-10-16T23:06:28;101105.31;;;16.64;100.00
34500;BME280;20745;50.882;6.962;2022-10-16T23:08:57;101054.53;;;16.37;100.00
34500;BME280;20745;50.882;6.962;2022-10-16T23:11:27;101115.78;;;16.74;100.00
34500;BME280;20745;50.882;6.962;2022-10-16T23:13:55;101123.97;;;16.80;100.00
34500;BME280;20745;50.882;6.962;2022-10-16T23:16:22;101125.25;;;16.78;100.00
34500;BME280;20745;50.882;6.962;2022-10-16T23:18:49;101074.72;;;16.49;100.00
34500;BME280;20745;50.882;6.962;2022-10-16T23:21:23;101124.19;;;16.79;100.00
34500;BME280;20745;50.882;6.962;2022-10-16T23:23:51;101077.22;;;16.51;100.00
34500;BME280;20745;50.882;6.962;2022-10-16T23:26:24;100994.19;;;15.95;100.00
34500;BME280;20745;50.882;6.962;2022-10-16T23:28:57;101038.63;;;16.28;100.00
34500;BME280;20745;50.882;6.962;2022-10-16T23:31:29;101080.16;;;16.49;100.00
34500;BME280;20745;50.882;6.962;2022-10-16T23:33:57;101094.63;;;16.56;100.00
34500;BME280;20745;50.882;6.962;2022-10-16T23:36:24;101146.63;;;16.87;100.00
34500;BME280;20745;50.882;6.962;2022-10-16T23:38:51;100949.75;;;15.68;100.00
34500;BME280;20745;50.882;6.962;2022-10-16T23:41:19;101042.16;;;16.28;100.00
34500;BME280;20745;50.882;6.962;2022-10-16T23:43:46;101085.59;;;16.56;100.00
34500;BME280;20745;50.882;6.962;2022-10-16T23:46:14;101109.72;;;16.72;100.00
34500;BME280;20745;50.882;6.962;2022-10-16T23:48:41;101159.00;;;16.96;100.00
34500;BME280;20745;50.882;6.962;2022-10-16T23:51:08;101091.03;;;16.62;100.00
34500;BME280;20745;50.882;6.962;2022-10-16T23:53:35;101027.28;;;16.24;100.00
34500;BME280;20745;50.882;6.962;2022-10-16T23:56:02;101094.22;;;16.59;100.00
34500;BME280;20745;50.882;6.962;2022-10-16T23:58:29;101039.88;;;16.25;100.00
